createdAt,value
2022-12-25T00:01:17.591Z,95207.70
2022-12-25T00:03:44.099Z,95212.41
2022-12-25T00:06:10.328Z,95213.13
2022-12-25T00:08:36.763Z,95211.37
2022-12-25T00:11:03.105Z,95209.51
2022-12-25T00:13:29.508Z,95209.97
2022-12-25T00:15:55.958Z,95214.06
2022-12-25T00:18:22.234Z,95209.83
2022-12-25T00:20:48.583Z,95210.44
2022-12-25T00:23:14.970Z,95214.11
2022-12-25T00:25:41.316Z,95215.36
2022-12-25T00:28:07.714Z,95223.47
2022-12-25T00:30:34.053Z,95232.30
2022-12-25T00:33:00.467Z,95233.34
2022-12-25T00:35:26.854Z,95243.00
2022-12-25T00:37:53.233Z,95250.40
2022-12-25T00:40:21.550Z,95247.56
2022-12-25T00:42:45.976Z,95250.39
2022-12-25T00:45:12.323Z,95252.63
2022-12-25T00:47:40.343Z,95249.00
2022-12-25T00:50:05.036Z,95250.62
2022-12-25T00:52:31.439Z,95250.87
2022-12-25T00:54:57.797Z,95256.28
2022-12-25T00:57:24.226Z,95256.86
2022-12-25T00:59:50.572Z,95249.50
2022-12-25T01:02:17.133Z,95251.94
2022-12-25T01:04:43.336Z,95249.61
2022-12-25T01:07:09.768Z,95246.77
2022-12-25T01:09:36.116Z,95248.07
2022-12-25T01:12:02.491Z,95250.08
2022-12-25T01:14:28.834Z,95248.42
2022-12-25T01:16:55.275Z,95250.19
2022-12-25T01:19:21.579Z,95247.48
2022-12-25T01:21:47.971Z,95254.42
2022-12-25T01:24:14.340Z,95253.02
2022-12-25T01:26:41.983Z,95254.42
2022-12-25T01:29:07.102Z,95252.20
2022-12-25T01:31:33.574Z,95244.80
2022-12-25T01:33:59.915Z,95251.38
2022-12-25T01:36:26.304Z,95249.03
2022-12-25T01:38:52.706Z,95249.39
2022-12-25T01:41:19.094Z,95248.46
2022-12-25T01:43:45.464Z,95256.21
2022-12-25T01:46:11.932Z,95245.87
2022-12-25T01:48:38.234Z,95248.57
2022-12-25T01:51:04.649Z,95251.98
2022-12-25T01:53:32.359Z,95258.55
2022-12-25T01:55:57.425Z,95256.32
2022-12-25T01:58:23.767Z,95255.64
2022-12-25T02:00:50.283Z,95257.15
2022-12-25T02:03:16.562Z,95262.09
2022-12-25T02:05:42.946Z,95263.72
2022-12-25T02:08:09.368Z,95261.73
2022-12-25T02:10:35.740Z,95263.03
2022-12-25T02:13:02.088Z,95266.08
2022-12-25T02:15:28.505Z,95263.14
2022-12-25T02:17:54.872Z,95265.26
2022-12-25T02:20:21.206Z,95263.64
2022-12-25T02:22:47.638Z,95259.41
2022-12-25T02:25:13.978Z,95266.69
2022-12-25T02:27:40.413Z,95261.16
2022-12-25T02:30:06.741Z,95261.30
2022-12-25T02:32:33.181Z,95259.52
2022-12-25T02:34:59.528Z,95261.16
2022-12-25T02:37:25.915Z,95257.07
2022-12-25T02:39:52.269Z,95261.77
2022-12-25T02:42:18.652Z,95263.17
2022-12-25T02:44:45.000Z,95260.59
2022-12-25T02:47:11.422Z,95258.72
2022-12-25T02:49:37.749Z,95257.76
2022-12-25T02:52:04.139Z,95259.30
2022-12-25T02:54:30.479Z,95261.20
2022-12-25T02:56:56.900Z,95257.18
2022-12-25T02:59:23.277Z,95262.23
2022-12-25T03:01:49.843Z,95266.22
2022-12-25T03:04:16.105Z,95266.36
2022-12-25T03:06:42.486Z,95269.63
2022-12-25T03:09:08.844Z,95271.53
2022-12-25T03:11:35.255Z,95278.67
2022-12-25T03:14:01.602Z,95281.26
2022-12-25T03:16:28.020Z,95284.45
2022-12-25T03:18:54.355Z,95292.45
2022-12-25T03:21:20.753Z,95292.46
2022-12-25T03:23:47.113Z,95300.59
2022-12-25T03:26:13.513Z,95301.02
2022-12-25T03:28:39.883Z,95307.30
2022-12-25T03:31:06.327Z,95308.22
2022-12-25T03:33:47.408Z,95307.03
2022-12-25T03:35:59.014Z,95307.86
2022-12-25T03:38:25.357Z,95308.31
2022-12-25T03:40:51.745Z,95311.35
2022-12-25T03:43:18.095Z,95306.79
2022-12-25T03:45:44.520Z,95319.75
2022-12-25T03:48:10.862Z,95318.38
2022-12-25T03:50:37.293Z,95319.75
2022-12-25T03:53:03.628Z,95321.98
2022-12-25T03:55:30.044Z,95326.19
2022-12-25T03:57:56.394Z,95330.17
2022-12-25T04:00:22.791Z,95328.89
2022-12-25T04:02:49.357Z,95328.30
2022-12-25T04:05:15.541Z,95330.63
2022-12-25T04:07:41.941Z,95322.76
2022-12-25T04:10:08.310Z,95320.31
2022-12-25T04:12:34.682Z,95324.97
2022-12-25T04:15:01.088Z,95328.49
2022-12-25T04:17:27.433Z,95330.94
2022-12-25T04:19:53.812Z,95336.67
2022-12-25T04:22:20.165Z,95340.41
2022-12-25T04:24:46.552Z,95346.75
2022-12-25T04:27:12.932Z,95344.76
2022-12-25T04:29:39.313Z,95345.09
2022-12-25T04:32:05.697Z,95346.50
2022-12-25T04:34:32.106Z,95352.58
2022-12-25T04:36:58.458Z,95346.14
2022-12-25T04:39:24.873Z,95348.34
2022-12-25T04:41:51.211Z,95353.49
2022-12-25T04:44:17.621Z,95349.30
2022-12-25T04:46:44.009Z,95355.27
2022-12-25T04:49:10.344Z,95358.30
2022-12-25T04:51:36.737Z,95362.88
2022-12-25T04:54:03.136Z,95372.80
2022-12-25T04:56:29.506Z,95371.51
2022-12-25T04:58:55.923Z,95369.30
2022-12-25T05:01:22.348Z,95369.67
2022-12-25T05:03:48.685Z,95372.03
2022-12-25T05:06:14.991Z,95378.31
2022-12-25T05:08:41.395Z,95377.85
2022-12-25T05:11:07.751Z,95379.51
2022-12-25T05:13:34.179Z,95380.30
2022-12-25T05:16:00.561Z,95376.56
2022-12-25T05:18:26.942Z,95375.16
2022-12-25T05:20:53.343Z,95373.87
2022-12-25T05:23:19.667Z,95376.11
2022-12-25T05:25:46.036Z,95370.12
2022-12-25T05:28:12.437Z,95376.11
2022-12-25T05:30:38.796Z,95374.70
2022-12-25T05:33:05.203Z,95374.70
2022-12-25T05:35:31.549Z,95373.87
2022-12-25T05:37:57.964Z,95382.69
2022-12-25T05:40:24.311Z,95387.84
2022-12-25T05:42:50.698Z,95386.06
2022-12-25T05:45:17.039Z,95395.08
2022-12-25T05:47:43.451Z,95394.61
2022-12-25T05:50:09.782Z,95397.09
2022-12-25T05:52:36.164Z,95392.87
2022-12-25T05:55:02.509Z,95400.50
2022-12-25T05:57:28.914Z,95396.27
2022-12-25T05:59:55.250Z,95402.25
2022-12-25T06:02:21.803Z,95407.39
2022-12-25T06:04:48.002Z,95408.22
2022-12-25T06:07:14.421Z,95417.94
2022-12-25T06:09:40.771Z,95416.19
2022-12-25T06:12:08.653Z,95411.05
2022-12-25T06:14:33.562Z,95419.66
2022-12-25T06:16:59.986Z,95425.21
2022-12-25T06:19:26.260Z,95422.42
2022-12-25T06:21:52.646Z,95430.28
2022-12-25T06:24:21.482Z,95432.86
2022-12-25T06:26:45.398Z,95440.96
2022-12-25T06:29:11.736Z,95442.84
2022-12-25T06:31:38.160Z,95443.90
2022-12-25T06:34:04.479Z,95451.55
2022-12-25T06:36:30.893Z,95450.95
2022-12-25T06:38:57.230Z,95450.70
2022-12-25T06:41:23.625Z,95450.61
2022-12-25T06:43:49.955Z,95454.81
2022-12-25T06:46:16.463Z,95459.77
2022-12-25T06:48:42.718Z,95459.05
2022-12-25T06:51:10.119Z,95469.38
2022-12-25T06:53:39.834Z,95471.19
2022-12-25T06:56:01.904Z,95476.92
2022-12-25T06:58:28.244Z,95489.48
2022-12-25T07:00:54.687Z,95489.50
2022-12-25T07:03:21.066Z,95494.91
2022-12-25T07:05:47.411Z,95495.37
2022-12-25T07:08:13.771Z,95497.72
2022-12-25T07:10:40.151Z,95508.98
2022-12-25T07:13:06.516Z,95507.13
2022-12-25T07:15:32.890Z,95526.13
2022-12-25T07:18:00.450Z,95517.09
2022-12-25T07:20:25.609Z,95516.50
2022-12-25T07:22:51.967Z,95513.58
2022-12-25T07:25:18.349Z,95515.44
2022-12-25T07:27:44.718Z,95511.56
2022-12-25T07:30:11.113Z,95516.98
2022-12-25T07:32:37.452Z,95513.91
2022-12-25T07:35:03.845Z,95512.05
2022-12-25T07:37:30.188Z,95516.26
2022-12-25T07:39:56.585Z,95518.73
2022-12-25T07:42:25.306Z,95518.84
2022-12-25T07:44:49.321Z,95521.32
2022-12-25T07:47:15.670Z,95532.95
2022-12-25T07:49:42.058Z,95536.46
2022-12-25T07:52:08.424Z,95542.45
2022-12-25T07:54:34.825Z,95545.27
2022-12-25T07:57:01.246Z,95545.41
2022-12-25T07:59:27.632Z,95545.28
2022-12-25T08:01:54.191Z,95551.03
2022-12-25T08:04:20.524Z,95547.75
2022-12-25T08:06:46.844Z,95557.13
2022-12-25T08:09:13.250Z,95565.94
2022-12-25T08:11:39.605Z,95571.34
2022-12-25T08:14:06.012Z,95570.18
2022-12-25T08:16:32.428Z,95571.00
2022-12-25T08:18:58.776Z,95577.00
2022-12-25T08:21:25.120Z,95571.23
2022-12-25T08:23:51.595Z,95570.64
2022-12-25T08:26:17.893Z,95565.94
2022-12-25T08:28:44.275Z,95561.23
2022-12-25T08:31:10.698Z,95561.96
2022-12-25T08:33:38.554Z,95557.36
2022-12-25T08:36:03.412Z,95547.52
2022-12-25T08:38:29.804Z,95544.10
2022-12-25T08:40:56.177Z,95547.52
2022-12-25T08:43:22.590Z,95543.05
2022-12-25T08:45:48.961Z,95548.31
2022-12-25T08:48:15.307Z,95548.68
2022-12-25T08:50:41.676Z,95556.20
2022-12-25T08:53:08.074Z,95558.78
2022-12-25T08:55:35.485Z,95552.69
2022-12-25T08:58:00.849Z,95558.78
2022-12-25T09:00:27.190Z,95562.89
2022-12-25T09:02:53.667Z,95560.07
2022-12-25T09:05:19.944Z,95557.95
2022-12-25T09:07:46.328Z,95556.92
2022-12-25T09:10:12.696Z,95563.38
2022-12-25T09:12:39.086Z,95558.45
2022-12-25T09:15:06.386Z,95566.20
2022-12-25T09:17:31.907Z,95566.53
2022-12-25T09:19:58.212Z,95566.90
2022-12-25T09:22:25.820Z,95565.01
2022-12-25T09:24:51.020Z,95568.05
2022-12-25T09:27:17.376Z,95556.09
2022-12-25T09:29:43.750Z,95566.30
2022-12-25T09:32:10.178Z,95561.03
2022-12-25T09:34:36.546Z,95561.37
2022-12-25T09:37:02.942Z,95566.53
2022-12-25T09:39:29.327Z,95564.78
2022-12-25T09:41:55.741Z,95562.19
2022-12-25T09:44:22.093Z,95562.66
2022-12-25T09:46:48.537Z,95559.25
2022-12-25T09:49:14.874Z,95557.02
2022-12-25T09:51:41.242Z,95554.57
2022-12-25T09:54:07.587Z,95553.98
2022-12-25T09:56:33.994Z,95554.10
2022-12-25T09:59:00.349Z,95557.74
2022-12-25T10:01:26.796Z,95553.73
2022-12-25T10:03:53.139Z,95547.64
2022-12-25T10:06:19.497Z,95552.11
2022-12-25T10:08:45.849Z,95552.91
2022-12-25T10:11:12.242Z,95551.61
2022-12-25T10:13:38.578Z,95551.17
2022-12-25T10:16:05.064Z,95554.55
2022-12-25T10:18:31.351Z,95547.76
2022-12-25T10:20:57.766Z,95541.64
2022-12-25T10:23:24.138Z,95544.22
2022-12-25T10:25:50.525Z,95538.36
2022-12-25T10:28:16.868Z,95542.80
2022-12-25T10:30:43.302Z,95540.47
2022-12-25T10:33:12.154Z,95550.56
2022-12-25T10:35:35.983Z,95551.98
2022-12-25T10:38:02.326Z,95551.63
2022-12-25T10:40:28.726Z,95553.75
2022-12-25T10:42:55.058Z,95551.40
2022-12-25T10:45:21.442Z,95549.16
2022-12-25T10:47:52.993Z,95551.50
2022-12-25T10:50:14.203Z,95549.84
2022-12-25T10:52:40.547Z,95556.19
2022-12-25T10:55:06.933Z,95545.15
2022-12-25T10:57:33.285Z,95549.01
2022-12-25T10:59:59.708Z,95550.51
2022-12-25T11:02:26.286Z,95549.97
2022-12-25T11:04:52.432Z,95547.35
2022-12-25T11:07:18.764Z,95550.37
2022-12-25T11:09:45.176Z,95552.39
2022-12-25T11:12:11.517Z,95550.02
2022-12-25T11:14:37.937Z,95547.32
2022-12-25T11:17:04.290Z,95549.00
2022-12-25T11:19:30.684Z,95549.66
2022-12-25T11:21:57.059Z,95551.42
2022-12-25T11:24:24.906Z,95557.06
2022-12-25T11:26:49.800Z,95551.34
2022-12-25T11:29:16.180Z,95555.30
2022-12-25T11:31:42.585Z,95556.02
2022-12-25T11:34:08.910Z,95555.55
2022-12-25T11:36:35.284Z,95554.88
2022-12-25T11:39:01.675Z,95554.62
2022-12-25T11:41:28.045Z,95553.44
2022-12-25T11:43:54.445Z,95557.31
2022-12-25T11:46:20.935Z,95558.69
2022-12-25T11:48:47.171Z,95542.43
2022-12-25T11:51:13.503Z,95553.14
2022-12-25T11:53:39.936Z,95553.03
2022-12-25T11:56:06.282Z,95556.16
2022-12-25T11:58:32.662Z,95536.81
2022-12-25T12:00:59.027Z,95536.81
2022-12-25T12:03:25.619Z,95551.38
2022-12-25T12:05:51.850Z,95549.75
2022-12-25T12:08:18.229Z,95551.16
2022-12-25T12:10:44.590Z,95555.30
2022-12-25T12:13:10.957Z,95552.48
2022-12-25T12:15:37.330Z,95548.61
2022-12-25T12:18:03.717Z,95550.04
2022-12-25T12:20:30.076Z,95537.33
2022-12-25T12:22:56.501Z,95550.45
2022-12-25T12:25:22.888Z,95539.01
2022-12-25T12:27:49.238Z,95539.01
2022-12-25T12:30:15.576Z,95556.48
2022-12-25T12:32:42.012Z,95561.16
2022-12-25T12:35:08.324Z,95561.16
2022-12-25T12:37:34.742Z,95560.56
2022-12-25T12:40:01.099Z,95563.72
2022-12-25T12:42:27.495Z,95556.87
2022-12-25T12:44:53.862Z,95568.36
2022-12-25T12:47:20.201Z,95552.78
2022-12-25T12:49:46.591Z,95565.34
2022-12-25T12:52:12.922Z,95568.50
2022-12-25T12:54:39.296Z,95568.10
2022-12-25T12:57:05.639Z,95576.91
2022-12-25T12:59:32.072Z,95579.03
2022-12-25T13:01:58.593Z,95581.28
2022-12-25T13:04:24.786Z,95585.78
2022-12-25T13:06:51.115Z,95585.56
2022-12-25T13:09:17.548Z,95580.02
2022-12-25T13:11:43.920Z,95584.98
2022-12-25T13:14:10.244Z,95587.48
2022-12-25T13:16:36.631Z,95577.09
2022-12-25T13:19:02.996Z,95583.88
2022-12-25T13:21:29.365Z,95578.13
2022-12-25T13:23:55.773Z,95587.08
2022-12-25T13:26:22.124Z,95576.46
2022-12-25T13:28:48.504Z,95579.00
2022-12-25T13:31:14.875Z,95579.95
2022-12-25T13:33:41.250Z,95573.25
2022-12-25T13:36:07.589Z,95579.54
2022-12-25T13:38:35.616Z,95576.80
2022-12-25T13:41:00.302Z,95578.24
2022-12-25T13:43:26.689Z,95570.48
2022-12-25T13:45:53.074Z,95570.69
2022-12-25T13:48:19.415Z,95573.29
2022-12-25T13:50:45.751Z,95573.17
2022-12-25T13:53:12.172Z,95576.77
2022-12-25T13:55:38.492Z,95578.42
2022-12-25T13:58:04.884Z,95573.83
2022-12-25T14:00:31.246Z,95572.50
2022-12-25T14:02:57.720Z,95576.36
2022-12-25T14:05:23.964Z,95575.56
2022-12-25T14:07:50.341Z,95578.25
2022-12-25T14:10:16.679Z,95579.36
2022-12-25T14:12:43.060Z,95581.80
2022-12-25T14:15:09.399Z,95586.06
2022-12-25T14:17:35.825Z,95588.50
2022-12-25T14:20:08.020Z,95582.80
2022-12-25T14:22:28.552Z,95595.09
2022-12-25T14:24:54.989Z,95604.53
2022-12-25T14:27:21.401Z,95571.69
2022-12-25T14:29:47.775Z,95596.25
2022-12-25T14:32:14.154Z,95601.08
2022-12-25T14:34:40.531Z,95604.43
2022-12-25T14:37:06.894Z,95600.80
2022-12-25T14:39:33.266Z,95605.77
2022-12-25T14:41:59.647Z,95594.94
2022-12-25T14:44:26.011Z,95598.24
2022-12-25T14:46:52.401Z,95605.70
2022-12-25T14:49:18.781Z,95605.70
2022-12-25T14:51:45.163Z,95607.57
2022-12-25T14:54:11.493Z,95610.91
2022-12-25T14:56:37.882Z,95607.50
2022-12-25T14:59:04.258Z,95607.50
2022-12-25T15:01:30.778Z,95610.01
2022-12-25T15:03:57.057Z,95607.53
2022-12-25T15:06:23.419Z,95608.27
2022-12-25T15:08:49.730Z,95599.93
2022-12-25T15:11:17.779Z,95601.91
2022-12-25T15:13:42.473Z,95589.81
2022-12-25T15:16:08.996Z,95607.80
2022-12-25T15:18:35.286Z,95597.37
2022-12-25T15:21:01.669Z,95597.37
2022-12-25T15:23:27.988Z,95613.95
2022-12-25T15:25:54.374Z,95611.58
2022-12-25T15:28:20.762Z,95617.83
2022-12-25T15:30:47.207Z,95618.08
2022-12-25T15:33:13.499Z,95602.89
2022-12-25T15:35:39.903Z,95602.89
2022-12-25T15:38:06.247Z,95617.58
2022-12-25T15:40:32.674Z,95622.17
2022-12-25T15:42:59.871Z,95634.28
2022-12-25T15:45:25.412Z,95634.28
2022-12-25T15:47:51.743Z,95633.35
2022-12-25T15:50:18.315Z,95633.35
2022-12-25T15:52:44.715Z,95631.01
2022-12-25T15:55:12.259Z,95619.84
2022-12-25T15:57:37.393Z,95634.20
2022-12-25T16:00:03.929Z,95638.77
2022-12-25T16:02:30.494Z,95648.08
2022-12-25T16:04:56.638Z,95645.95
2022-12-25T16:07:23.006Z,95632.55
2022-12-25T16:09:49.361Z,95632.55
2022-12-25T16:12:15.713Z,95650.22
2022-12-25T16:14:42.108Z,95650.69
2022-12-25T16:17:09.625Z,95650.93
2022-12-25T16:19:34.808Z,95654.20
2022-12-25T16:22:01.189Z,95658.33
2022-12-25T16:24:27.574Z,95655.74
2022-12-25T16:26:53.948Z,95645.88
2022-12-25T16:29:20.309Z,95658.67
2022-12-25T16:31:46.809Z,95651.16
2022-12-25T16:34:13.063Z,95658.34
2022-12-25T16:36:39.440Z,95660.58
2022-12-25T16:39:05.863Z,95659.05
2022-12-25T16:41:32.219Z,95666.35
2022-12-25T16:43:58.597Z,95666.92
2022-12-25T16:46:25.047Z,95670.94
2022-12-25T16:48:51.354Z,95671.28
2022-12-25T16:51:17.731Z,95679.77
2022-12-25T16:53:44.087Z,95683.77
2022-12-25T16:56:10.428Z,95689.17
2022-12-25T16:58:36.845Z,95694.81
2022-12-25T17:01:03.188Z,95697.99
2022-12-25T17:03:29.719Z,95701.52
2022-12-25T17:05:55.948Z,95701.87
2022-12-25T17:08:22.348Z,95707.98
2022-12-25T17:10:48.691Z,95707.52
2022-12-25T17:13:15.077Z,95712.46
2022-12-25T17:15:45.254Z,95716.31
2022-12-25T17:18:07.802Z,95717.05
2022-12-25T17:20:34.181Z,95723.38
2022-12-25T17:23:01.844Z,95727.39
2022-12-25T17:25:26.900Z,95723.73
2022-12-25T17:27:53.334Z,95724.21
2022-12-25T17:30:19.675Z,95730.55
2022-12-25T17:32:46.066Z,95731.38
2022-12-25T17:35:12.441Z,95738.20
2022-12-25T17:37:38.848Z,95735.13
2022-12-25T17:40:05.182Z,95740.06
2022-12-25T17:42:33.915Z,95741.00
2022-12-25T17:45:00.298Z,95743.02
2022-12-25T17:47:26.678Z,95744.64
2022-12-25T17:49:53.079Z,95745.01
2022-12-25T17:52:19.474Z,95746.53
2022-12-25T17:54:45.802Z,95746.66
2022-12-25T17:57:12.218Z,95742.09
2022-12-25T17:59:38.593Z,95744.41
2022-12-25T18:02:05.115Z,95741.66
2022-12-25T18:04:31.432Z,95744.52
2022-12-25T18:06:57.851Z,95744.78
2022-12-25T18:09:24.206Z,95746.27
2022-12-25T18:11:51.992Z,95742.49
2022-12-25T18:14:16.934Z,95752.73
2022-12-25T18:16:43.394Z,95748.63
2022-12-25T18:19:09.677Z,95743.78
2022-12-25T18:21:36.133Z,95750.71
2022-12-25T18:24:02.510Z,95754.00
2022-12-25T18:26:29.026Z,95763.87
2022-12-25T18:28:55.300Z,95758.84
2022-12-25T18:31:21.829Z,95754.13
2022-12-25T18:33:49.314Z,95748.72
2022-12-25T18:36:14.474Z,95754.36
2022-12-25T18:38:40.835Z,95761.88
2022-12-25T18:41:07.228Z,95758.23
2022-12-25T18:43:52.749Z,95760.69
2022-12-25T18:46:00.139Z,95764.23
2022-12-25T18:48:26.366Z,95767.75
2022-12-25T18:50:52.765Z,95766.92
2022-12-25T18:53:19.104Z,95767.02
2022-12-25T18:55:45.517Z,95768.31
2022-12-25T18:58:11.867Z,95765.27
2022-12-25T19:00:38.313Z,95755.75
2022-12-25T19:03:04.836Z,95760.45
2022-12-25T19:05:31.008Z,95757.17
2022-12-25T19:07:58.407Z,95754.68
2022-12-25T19:10:23.786Z,95758.42
2022-12-25T19:12:50.190Z,95769.23
2022-12-25T19:15:16.567Z,95761.83
2022-12-25T19:17:42.923Z,95765.81
2022-12-25T19:20:09.374Z,95771.81
2022-12-25T19:22:35.692Z,95772.86
2022-12-25T19:25:02.120Z,95772.73
2022-12-25T19:27:28.475Z,95775.21
2022-12-25T19:29:54.863Z,95772.16
2022-12-25T19:32:21.247Z,95772.16
2022-12-25T19:34:47.648Z,95774.86
2022-12-25T19:37:13.996Z,95777.57
2022-12-25T19:39:40.387Z,95776.50
2022-12-25T19:42:06.739Z,95775.07
2022-12-25T19:44:33.124Z,95780.61
2022-12-25T19:46:59.460Z,95780.61
2022-12-25T19:49:25.895Z,95779.54
2022-12-25T19:51:52.269Z,95788.59
2022-12-25T19:54:18.647Z,95792.09
2022-12-25T19:56:45.035Z,95791.97
2022-12-25T19:59:11.474Z,95782.12
2022-12-25T20:01:37.906Z,95783.88
2022-12-25T20:04:04.251Z,95773.55
2022-12-25T20:06:30.602Z,95773.17
2022-12-25T20:08:56.992Z,95770.72
2022-12-25T20:11:23.348Z,95766.02
2022-12-25T20:13:49.746Z,95762.47
2022-12-25T20:16:16.123Z,95762.47
2022-12-25T20:18:42.514Z,95773.41
2022-12-25T20:21:08.867Z,95764.58
2022-12-25T20:23:35.241Z,95762.83
2022-12-25T20:26:01.612Z,95765.73
2022-12-25T20:28:28.017Z,95764.68
2022-12-25T20:30:54.375Z,95768.69
2022-12-25T20:33:20.760Z,95767.85
2022-12-25T20:35:47.140Z,95762.78
2022-12-25T20:38:13.567Z,95773.95
2022-12-25T20:41:08.163Z,95767.62
2022-12-25T20:43:06.295Z,95769.01
2022-12-25T20:45:32.666Z,95775.00
2022-12-25T20:47:59.039Z,95776.05
2022-12-25T20:50:25.386Z,95776.75
2022-12-25T20:52:52.816Z,95783.67
2022-12-25T20:55:18.142Z,95778.64
2022-12-25T20:57:44.557Z,95779.47
2022-12-25T21:00:10.910Z,95779.47
2022-12-25T21:02:37.542Z,95782.38
2022-12-25T21:05:03.671Z,95788.27
2022-12-25T21:07:30.077Z,95792.61
2022-12-25T21:09:56.412Z,95796.95
2022-12-25T21:12:22.873Z,95796.58
2022-12-25T21:14:49.172Z,95798.34
2022-12-25T21:17:15.614Z,95799.84
2022-12-25T21:19:41.941Z,95798.80
2022-12-25T21:22:08.333Z,95794.13
2022-12-25T21:24:34.715Z,95793.63
2022-12-25T21:27:01.064Z,95795.75
2022-12-25T21:29:27.420Z,95796.07
2022-12-25T21:31:53.818Z,95792.19
2022-12-25T21:34:20.186Z,95789.70
2022-12-25T21:36:46.580Z,95791.73
2022-12-25T21:39:12.923Z,95793.02
2022-12-25T21:41:39.355Z,95793.85
2022-12-25T21:44:05.721Z,95794.88
2022-12-25T21:46:32.153Z,95795.00
2022-12-25T21:48:58.461Z,95794.88
2022-12-25T21:51:24.859Z,95801.55
2022-12-25T21:53:51.191Z,95793.09
2022-12-25T21:56:17.609Z,95791.34
2022-12-25T21:58:43.945Z,95787.80
2022-12-25T22:01:10.382Z,95784.77
2022-12-25T22:03:36.805Z,95781.47
2022-12-25T22:06:03.087Z,95787.47
2022-12-25T22:08:29.457Z,95778.52
2022-12-25T22:10:55.840Z,95783.81
2022-12-25T22:13:22.262Z,95779.81
2022-12-25T22:15:48.625Z,95774.78
2022-12-25T22:18:14.924Z,95777.70
2022-12-25T22:20:41.337Z,95780.73
2022-12-25T22:23:07.702Z,95775.70
2022-12-25T22:25:34.116Z,95771.83
2022-12-25T22:28:00.560Z,95782.52
2022-12-25T22:30:26.848Z,95773.36
2022-12-25T22:32:53.178Z,95778.52
2022-12-25T22:35:19.598Z,95778.52
2022-12-25T22:37:45.940Z,95785.57
2022-12-25T22:40:12.393Z,95786.40
2022-12-25T22:42:38.733Z,95789.78
2022-12-25T22:45:05.157Z,95778.98
2022-12-25T22:47:31.541Z,95782.52
2022-12-25T22:49:57.894Z,95776.99
2022-12-25T22:52:24.266Z,95787.86
2022-12-25T22:54:50.665Z,95791.53
2022-12-25T22:57:17.028Z,95788.31
2022-12-25T22:59:43.423Z,95785.82
2022-12-25T23:02:09.950Z,95789.69
2022-12-25T23:04:36.184Z,95791.88
2022-12-25T23:07:02.577Z,95788.97
2022-12-25T23:09:28.896Z,95794.00
2022-12-25T23:11:55.309Z,95798.61
2022-12-25T23:14:21.648Z,95797.03
2022-12-25T23:16:48.046Z,95792.38
2022-12-25T23:19:14.390Z,95799.98
2022-12-25T23:21:40.808Z,95797.33
2022-12-25T23:24:07.178Z,95790.70
2022-12-25T23:26:33.574Z,95782.53
2022-12-25T23:28:59.924Z,95789.23
2022-12-25T23:31:26.346Z,95788.77
2022-12-25T23:33:52.707Z,95785.82
2022-12-25T23:36:19.065Z,95787.38
2022-12-25T23:38:45.407Z,95787.86
2022-12-25T23:41:11.826Z,95791.23
2022-12-25T23:43:39.376Z,95804.86
2022-12-25T23:46:04.635Z,95798.77
2022-12-25T23:48:30.912Z,95802.17
2022-12-25T23:50:57.308Z,95800.05
2022-12-25T23:53:23.646Z,95805.31
2022-12-25T23:55:55.365Z,95803.91
2022-12-25T23:58:16.402Z,95810.72
